CGUPM KVQQ-KGMU
Flight info
| Callsign | CGUPM |
|---|---|
| Flight time | N/A |
| Altitude | 4500 |
| Route | JA BZQ AG EMR IRQ |
| Aircraft | DHC2/L-DOV/C |
Departure
| Time | 2026-04-22 17:45 |
|---|---|
| Airport | Cecil Airport (KVQQ) |
Arrival
| Time | N/A |
|---|---|
| Airport | Greenville Downtown Airport (KGMU) |
| Time | Latitude | Longitude | Altitude | Speed | Heading |
|---|---|---|---|---|---|
| 2026-04-22 17:30 | 30.22057 | -81.87931 | 75 ft | 0 kts | 270° |
| 2026-04-22 17:38 | 30.22057 | -81.87934 | 75 ft | 2 kts | 269° |
| 2026-04-22 17:39 | 30.22040 | -81.87965 | 75 ft | 4 kts | 205° |
| 2026-04-22 17:39 | 30.22015 | -81.87976 | 75 ft | 6 kts | 209° |
| 2026-04-22 17:39 | 30.21976 | -81.88116 | 75 ft | 11 kts | 266° |
| 2026-04-22 17:40 | 30.21977 | -81.88193 | 75 ft | 7 kts | 271° |
| 2026-04-22 17:40 | 30.21975 | -81.88261 | 75 ft | 11 kts | 266° |
| 2026-04-22 17:40 | 30.21973 | -81.88378 | 75 ft | 16 kts | 269° |
| 2026-04-22 17:40 | 30.21972 | -81.88502 | 75 ft | 13 kts | 268° |
| 2026-04-22 17:41 | 30.21973 | -81.88594 | 76 ft | 9 kts | 271° |
| 2026-04-22 17:41 | 30.21973 | -81.88669 | 76 ft | 10 kts | 268° |
| 2026-04-22 17:41 | 30.21971 | -81.88751 | 76 ft | 8 kts | 270° |
| 2026-04-22 17:41 | 30.21966 | -81.88807 | 76 ft | 5 kts | 225° |
| 2026-04-22 17:42 | 30.21927 | -81.88816 | 76 ft | 11 kts | 182° |
| 2026-04-22 17:42 | 30.21890 | -81.88864 | 75 ft | 7 kts | 274° |
| 2026-04-22 17:42 | 30.21892 | -81.88926 | 76 ft | 15 kts | 270° |
| 2026-04-22 17:42 | 30.21893 | -81.89066 | 76 ft | 9 kts | 271° |
| 2026-04-22 17:43 | 30.21887 | -81.89136 | 76 ft | 8 kts | 221° |
| 2026-04-22 17:43 | 30.21846 | -81.89146 | 75 ft | 3 kts | 182° |
| 2026-04-22 17:43 | 30.21827 | -81.89147 | 75 ft | 6 kts | 180° |
| 2026-04-22 17:43 | 30.21782 | -81.89124 | 75 ft | 11 kts | 127° |
| 2026-04-22 17:44 | 30.21758 | -81.88884 | 76 ft | 57 kts | 94° |
| 2026-04-22 17:44 | 30.21758 | -81.88279 | 239 ft | 81 kts | 87° |
| 2026-04-22 17:44 | 30.21762 | -81.87558 | 381 ft | 94 kts | 79° |
| 2026-04-22 17:44 | 30.22186 | -81.86890 | 358 ft | 109 kts | 38° |
| 2026-04-22 17:45 | 30.22840 | -81.86575 | 554 ft | 103 kts | 18° |
| 2026-04-22 17:45 | 30.23530 | -81.86338 | 675 ft | 102 kts | 17° |
| 2026-04-22 17:45 | 30.24217 | -81.86108 | 791 ft | 101 kts | 17° |
| 2026-04-22 17:45 | 30.24894 | -81.85882 | 909 ft | 100 kts | 17° |
| 2026-04-22 17:46 | 30.25560 | -81.85664 | 1019 ft | 97 kts | 17° |
| 2026-04-22 17:46 | 30.26200 | -81.85458 | 1129 ft | 93 kts | 17° |
| 2026-04-22 17:46 | 30.26815 | -81.85264 | 1252 ft | 88 kts | 17° |
| 2026-04-22 17:46 | 30.27397 | -81.85088 | 1432 ft | 83 kts | 17° |
| 2026-04-22 17:47 | 30.27941 | -81.84922 | 1610 ft | 79 kts | 17° |
| 2026-04-22 17:47 | 30.28466 | -81.84773 | 1789 ft | 75 kts | 17° |
| 2026-04-22 17:47 | 30.28963 | -81.84631 | 1944 ft | 74 kts | 16° |
| 2026-04-22 17:47 | 30.29476 | -81.84475 | 2070 ft | 77 kts | 17° |
| 2026-04-22 17:48 | 30.29833 | -81.84368 | 2154 ft | 79 kts | 17° |
| 2026-04-22 17:48 | 30.30568 | -81.84155 | 2321 ft | 82 kts | 16° |
| 2026-04-22 17:48 | 30.31136 | -81.84005 | 2443 ft | 84 kts | 15° |
| 2026-04-22 17:48 | 30.31713 | -81.83854 | 2575 ft | 84 kts | 14° |
| 2026-04-22 17:49 | 30.32287 | -81.83703 | 2713 ft | 84 kts | 15° |
| 2026-04-22 17:49 | 30.32858 | -81.83551 | 2852 ft | 83 kts | 15° |
| 2026-04-22 17:49 | 30.33425 | -81.83403 | 2991 ft | 82 kts | 15° |
| 2026-04-22 17:49 | 30.33984 | -81.83258 | 3129 ft | 82 kts | 15° |
| 2026-04-22 17:50 | 30.34538 | -81.83118 | 3266 ft | 81 kts | 15° |
| 2026-04-22 17:50 | 30.35092 | -81.82980 | 3404 ft | 80 kts | 14° |
| 2026-04-22 17:50 | 30.35631 | -81.82844 | 3539 ft | 79 kts | 14° |
| 2026-04-22 17:50 | 30.36170 | -81.82701 | 3676 ft | 78 kts | 15° |
| 2026-04-22 17:51 | 30.36710 | -81.82557 | 3783 ft | 81 kts | 14° |
| 2026-04-22 17:51 | 30.37078 | -81.82459 | 3850 ft | 83 kts | 14° |
| 2026-04-22 17:51 | 30.37843 | -81.82252 | 4006 ft | 84 kts | 14° |
| 2026-04-22 17:51 | 30.38411 | -81.82100 | 4122 ft | 84 kts | 15° |
| 2026-04-22 17:52 | 30.38986 | -81.81949 | 4239 ft | 84 kts | 14° |
| 2026-04-22 17:52 | 30.39556 | -81.81799 | 4355 ft | 84 kts | 14° |
| 2026-04-22 17:52 | 30.40151 | -81.81644 | 4437 ft | 88 kts | 15° |
| 2026-04-22 17:52 | 30.40780 | -81.81480 | 4464 ft | 96 kts | 15° |
| 2026-04-22 17:53 | 30.41465 | -81.81300 | 4466 ft | 104 kts | 16° |
| 2026-04-22 17:53 | 30.42195 | -81.81113 | 4464 ft | 108 kts | 15° |
| 2026-04-22 17:53 | 30.42936 | -81.80924 | 4460 ft | 110 kts | 15° |
| 2026-04-22 17:53 | 30.43697 | -81.80729 | 4455 ft | 110 kts | 15° |
| 2026-04-22 17:54 | 30.44437 | -81.80539 | 4455 ft | 108 kts | 15° |
| 2026-04-22 17:54 | 30.45181 | -81.80345 | 4454 ft | 107 kts | 15° |
| 2026-04-22 17:54 | 30.45903 | -81.80160 | 4453 ft | 107 kts | 15° |
| 2026-04-22 17:54 | 30.46636 | -81.79968 | 4453 ft | 106 kts | 15° |
| 2026-04-22 17:55 | 30.47125 | -81.79840 | 4453 ft | 106 kts | 15° |
| 2026-04-22 17:55 | 30.48107 | -81.79643 | 4457 ft | 107 kts | 2° |
| 2026-04-22 17:55 | 30.48850 | -81.79643 | 4455 ft | 108 kts | 2° |
| 2026-04-22 17:55 | 30.49609 | -81.79648 | 4454 ft | 108 kts | 2° |
| 2026-04-22 17:56 | 30.50358 | -81.79651 | 4452 ft | 108 kts | 2° |
| 2026-04-22 17:56 | 30.51119 | -81.79658 | 4451 ft | 108 kts | 2° |
| 2026-04-22 17:56 | 30.51882 | -81.79666 | 4451 ft | 108 kts | 2° |
| 2026-04-22 17:56 | 30.52636 | -81.79672 | 4451 ft | 108 kts | 2° |
| 2026-04-22 17:57 | 30.53402 | -81.79677 | 4451 ft | 108 kts | 2° |
| 2026-04-22 17:57 | 30.54164 | -81.79684 | 4452 ft | 109 kts | 2° |
| 2026-04-22 17:57 | 30.54917 | -81.79688 | 4452 ft | 109 kts | 2° |
| 2026-04-22 17:57 | 30.55685 | -81.79694 | 4452 ft | 109 kts | 2° |
| 2026-04-22 17:58 | 30.56441 | -81.79694 | 4452 ft | 109 kts | 2° |
| 2026-04-22 17:58 | 30.57207 | -81.79696 | 4450 ft | 109 kts | 3° |
| 2026-04-22 17:58 | 30.57969 | -81.79697 | 4445 ft | 109 kts | 2° |
| 2026-04-22 17:58 | 30.58742 | -81.79696 | 4437 ft | 109 kts | 2° |
| 2026-04-22 17:59 | 30.59493 | -81.79668 | 4422 ft | 108 kts | 12° |
| 2026-04-22 17:59 | 30.60240 | -81.79520 | 4424 ft | 108 kts | 13° |
| 2026-04-22 17:59 | 30.60982 | -81.79369 | 4423 ft | 107 kts | 12° |
| 2026-04-22 17:59 | 30.61722 | -81.79221 | 4424 ft | 107 kts | 12° |
| 2026-04-22 18:00 | 30.62216 | -81.79121 | 4425 ft | 107 kts | 13° |
| 2026-04-22 18:00 | 30.63209 | -81.78926 | 4428 ft | 107 kts | 12° |
| 2026-04-22 18:00 | 30.63950 | -81.78783 | 4426 ft | 107 kts | 12° |
| 2026-04-22 18:00 | 30.64572 | -81.78661 | 4426 ft | 107 kts | 12° |
| 2026-04-22 18:01 | 30.65318 | -81.78509 | 4427 ft | 107 kts | 12° |
| 2026-04-22 18:01 | 30.66069 | -81.78353 | 4426 ft | 107 kts | 13° |
| 2026-04-22 18:01 | 30.66798 | -81.78205 | 4426 ft | 107 kts | 12° |
| 2026-04-22 18:01 | 30.67541 | -81.78053 | 4425 ft | 107 kts | 12° |
| 2026-04-22 18:02 | 30.68279 | -81.77901 | 4423 ft | 107 kts | 12° |
| 2026-04-22 18:02 | 30.69025 | -81.77750 | 4422 ft | 107 kts | 12° |
| 2026-04-22 18:02 | 30.69765 | -81.77601 | 4424 ft | 107 kts | 12° |
| 2026-04-22 18:02 | 30.70507 | -81.77448 | 4429 ft | 108 kts | 12° |
| 2026-04-22 18:03 | 30.71254 | -81.77290 | 4435 ft | 108 kts | 13° |
| 2026-04-22 18:03 | 30.72000 | -81.77130 | 4442 ft | 108 kts | 12° |
| 2026-04-22 18:03 | 30.72753 | -81.76968 | 4444 ft | 109 kts | 12° |
| 2026-04-22 18:03 | 30.73505 | -81.76807 | 4445 ft | 109 kts | 13° |
| 2026-04-22 18:04 | 30.74255 | -81.76650 | 4441 ft | 109 kts | 12° |
| 2026-04-22 18:04 | 30.75014 | -81.76488 | 4439 ft | 109 kts | 13° |
| 2026-04-22 18:04 | 30.75766 | -81.76326 | 4435 ft | 109 kts | 12° |
| 2026-04-22 18:04 | 30.76517 | -81.76161 | 4435 ft | 109 kts | 12° |
| 2026-04-22 18:05 | 30.77277 | -81.75996 | 4434 ft | 109 kts | 12° |
| 2026-04-22 18:05 | 30.78030 | -81.75831 | 4432 ft | 109 kts | 13° |
| 2026-04-22 18:05 | 30.78778 | -81.75669 | 4433 ft | 109 kts | 13° |
| 2026-04-22 18:05 | 30.79514 | -81.75442 | 4435 ft | 109 kts | 18° |
| 2026-04-22 18:06 | 30.80247 | -81.75202 | 4432 ft | 109 kts | 17° |
| 2026-04-22 18:06 | 30.80986 | -81.74962 | 4434 ft | 109 kts | 18° |
| 2026-04-22 18:06 | 30.81717 | -81.74731 | 4436 ft | 109 kts | 17° |
| 2026-04-22 18:06 | 30.82457 | -81.74498 | 4432 ft | 109 kts | 18° |
| 2026-04-22 18:07 | 30.82951 | -81.74345 | 4430 ft | 109 kts | 17° |
| 2026-04-22 18:07 | 30.83935 | -81.74047 | 4421 ft | 109 kts | 18° |
| 2026-04-22 18:07 | 30.84672 | -81.73825 | 4419 ft | 109 kts | 18° |
| 2026-04-22 18:07 | 30.85413 | -81.73599 | 4421 ft | 108 kts | 18° |
| 2026-04-22 18:08 | 30.86146 | -81.73376 | 4422 ft | 108 kts | 17° |
| 2026-04-22 18:08 | 30.86867 | -81.73154 | 4421 ft | 108 kts | 17° |
| 2026-04-22 18:08 | 30.87601 | -81.72928 | 4421 ft | 107 kts | 18° |
| 2026-04-22 18:08 | 30.88320 | -81.72705 | 4420 ft | 106 kts | 18° |
| 2026-04-22 18:09 | 30.89035 | -81.72480 | 4419 ft | 105 kts | 17° |
| 2026-04-22 18:09 | 30.89747 | -81.72257 | 4419 ft | 104 kts | 18° |
| 2026-04-22 18:09 | 30.90451 | -81.72036 | 4416 ft | 104 kts | 18° |
| 2026-04-22 18:09 | 30.91152 | -81.71812 | 4419 ft | 104 kts | 18° |
| 2026-04-22 18:10 | 30.91852 | -81.71587 | 4418 ft | 104 kts | 17° |
| 2026-04-22 18:10 | 30.92566 | -81.71355 | 4421 ft | 105 kts | 18° |
| 2026-04-22 18:10 | 30.93270 | -81.71128 | 4420 ft | 105 kts | 17° |
| 2026-04-22 18:10 | 30.93980 | -81.70905 | 4420 ft | 105 kts | 17° |
| 2026-04-22 18:11 | 30.94686 | -81.70685 | 4420 ft | 104 kts | 17° |
| 2026-04-22 18:11 | 30.95399 | -81.70465 | 4423 ft | 104 kts | 18° |
| 2026-04-22 18:11 | 30.96105 | -81.70246 | 4421 ft | 104 kts | 17° |
| 2026-04-22 18:11 | 30.96803 | -81.70028 | 4421 ft | 103 kts | 18° |
| 2026-04-22 18:12 | 30.97503 | -81.69807 | 4421 ft | 104 kts | 17° |
| 2026-04-22 18:12 | 30.98206 | -81.69583 | 4424 ft | 104 kts | 17° |
| 2026-04-22 18:12 | 30.98671 | -81.69438 | 4423 ft | 104 kts | 17° |
| 2026-04-22 18:12 | 30.99602 | -81.69144 | 4422 ft | 104 kts | 18° |
| 2026-04-22 18:13 | 31.00315 | -81.68917 | 4420 ft | 104 kts | 17° |
| 2026-04-22 18:13 | 31.01014 | -81.68694 | 4416 ft | 104 kts | 18° |
| 2026-04-22 18:13 | 31.01720 | -81.68469 | 4413 ft | 104 kts | 17° |
| 2026-04-22 18:13 | 31.02424 | -81.68246 | 4416 ft | 104 kts | 17° |
| 2026-04-22 18:14 | 31.03122 | -81.68027 | 4418 ft | 104 kts | 17° |
| 2026-04-22 18:14 | 31.03824 | -81.67808 | 4419 ft | 104 kts | 17° |
| 2026-04-22 18:14 | 31.04528 | -81.67587 | 4417 ft | 104 kts | 17° |
| 2026-04-22 18:14 | 31.05235 | -81.67364 | 4415 ft | 103 kts | 18° |
| 2026-04-22 18:15 | 31.05926 | -81.67146 | 4415 ft | 103 kts | 17° |
| 2026-04-22 18:15 | 31.06622 | -81.66924 | 4413 ft | 103 kts | 17° |
| 2026-04-22 18:15 | 31.07320 | -81.66697 | 4414 ft | 102 kts | 17° |
| 2026-04-22 18:15 | 31.08006 | -81.66474 | 4419 ft | 102 kts | 18° |
| 2026-04-22 18:16 | 31.08704 | -81.66248 | 4421 ft | 103 kts | 17° |
| 2026-04-22 18:16 | 31.09399 | -81.66022 | 4426 ft | 103 kts | 17° |
| 2026-04-22 18:16 | 31.10102 | -81.65791 | 4423 ft | 104 kts | 17° |
| 2026-04-22 18:16 | 31.10751 | -81.65581 | 4422 ft | 104 kts | 17° |
| 2026-04-22 18:17 | 31.11368 | -81.65385 | 4422 ft | 104 kts | 17° |
| 2026-04-22 18:17 | 31.12070 | -81.65160 | 4422 ft | 104 kts | 17° |
| 2026-04-22 18:17 | 31.12788 | -81.64930 | 4418 ft | 104 kts | 17° |
| 2026-04-22 18:17 | 31.13495 | -81.64704 | 4422 ft | 103 kts | 17° |
| 2026-04-22 18:18 | 31.14190 | -81.64480 | 4428 ft | 103 kts | 17° |
| 2026-04-22 18:18 | 31.14898 | -81.64312 | 4430 ft | 104 kts | 0° |
| 2026-04-22 18:18 | 31.15629 | -81.64329 | 4428 ft | 105 kts | 0° |
| 2026-04-22 18:18 | 31.16352 | -81.64347 | 4430 ft | 104 kts | 0° |
| 2026-04-22 18:19 | 31.17094 | -81.64365 | 4431 ft | 105 kts | 0° |
| 2026-04-22 18:19 | 31.17826 | -81.64384 | 4428 ft | 105 kts | 0° |
| 2026-04-22 18:19 | 31.18561 | -81.64400 | 4425 ft | 105 kts | 0° |
| 2026-04-22 18:19 | 31.19299 | -81.64417 | 4429 ft | 104 kts | 0° |
| 2026-04-22 18:20 | 31.20029 | -81.64429 | 4430 ft | 105 kts | 1° |
| 2026-04-22 18:20 | 31.20770 | -81.64442 | 4434 ft | 105 kts | 0° |
| 2026-04-22 18:20 | 31.21514 | -81.64459 | 4433 ft | 106 kts | 1° |
| 2026-04-22 18:20 | 31.22265 | -81.64479 | 4427 ft | 107 kts | 0° |
| 2026-04-22 18:21 | 31.23016 | -81.64503 | 4426 ft | 106 kts | 0° |
| 2026-04-22 18:21 | 31.23744 | -81.64526 | 4432 ft | 105 kts | 0° |
| 2026-04-22 18:21 | 31.24486 | -81.64547 | 4433 ft | 106 kts | 0° |
| 2026-04-22 18:21 | 31.25227 | -81.64567 | 4434 ft | 105 kts | 0° |
| 2026-04-22 18:22 | 31.25967 | -81.64586 | 4437 ft | 105 kts | 0° |
| 2026-04-22 18:22 | 31.26695 | -81.64604 | 4432 ft | 105 kts | 0° |
| 2026-04-22 18:22 | 31.27435 | -81.64620 | 4435 ft | 105 kts | 0° |
| 2026-04-22 18:22 | 31.28164 | -81.64635 | 4435 ft | 105 kts | 360° |
| 2026-04-22 18:23 | 31.28905 | -81.64646 | 4433 ft | 105 kts | 1° |
| 2026-04-22 18:23 | 31.29638 | -81.64659 | 4435 ft | 106 kts | 0° |
| 2026-04-22 18:23 | 31.30376 | -81.64670 | 4433 ft | 106 kts | 0° |
| 2026-04-22 18:24 | 31.31369 | -81.64690 | 4429 ft | 106 kts | 0° |
| 2026-04-22 18:24 | 31.31866 | -81.64701 | 4427 ft | 106 kts | 360° |